Time;durP1;ratioP1;P1;durP2;ratioP2;P2;SDS_P1;SDS_P2;PMS_P1;PMS_P2;Temp;Humidity;BMP_temperature;BMP_pressure;BME280_temperature;BME280_humidity;BME280_pressure;Samples;Min_cycle;Max_cycle;Signal;HPM_P1;HPM_P2
2021/07/12 00:01:42;;;;;;;;;;;;;;;15.68;100.00;98836.31;5016178;28;19932;-77
2021/07/12 00:04:09;;;;;;;;;;;;;;;15.72;100.00;98836.94;4998759;28;19925;-78
2021/07/12 00:06:36;;;;;;;;;;;;;;;15.72;100.00;98836.94;5015905;28;20016;-78
2021/07/12 00:09:04;;;;;;;;;;;;;;;15.74;100.00;98840.09;5016132;28;20020;-78
2021/07/12 00:11:32;;;;;;;;;;;;;;;15.72;100.00;98836.94;5015951;28;19936;-78
2021/07/12 00:13:59;;;;;;;;;;;;;;;15.61;100.00;98839.41;4998347;28;19968;-78
2021/07/12 00:16:26;;;;;;;;;;;;;;;15.68;100.00;98835.50;4998256;28;19929;-78
2021/07/12 00:18:53;;;;;;;;;;;;;;;15.68;100.00;98835.50;5015908;28;19932;-78
2021/07/12 00:21:21;;;;;;;;;;;;;;;15.60;100.00;98837.81;5016156;28;20301;-78
2021/07/12 00:23:49;;;;;;;;;;;;;;;15.57;100.00;98835.94;4998314;28;19925;-78
2021/07/12 00:26:17;;;;;;;;;;;;;;;15.60;100.00;98840.63;5015854;28;19990;-78
2021/07/12 00:28:44;;;;;;;;;;;;;;;15.65;100.00;98844.88;5015629;28;19968;-78
2021/07/12 00:31:11;;;;;;;;;;;;;;;15.73;100.00;98844.16;5015712;28;20012;-78
2021/07/12 00:33:39;;;;;;;;;;;;;;;15.68;100.00;98835.50;5015692;28;19929;-78
2021/07/12 00:36:07;;;;;;;;;;;;;;;15.69;100.00;98839.91;5015372;28;19933;-78
2021/07/12 00:38:34;;;;;;;;;;;;;;;15.59;100.00;98838.28;4981849;28;20295;-78
2021/07/12 00:41:04;;;;;;;;;;;;;;;15.53;100.00;98831.69;4981875;28;19925;-77
2021/07/12 00:43:31;;;;;;;;;;;;;;;15.44;100.00;98826.00;5015386;28;19925;-78
2021/07/12 00:45:58;;;;;;;;;;;;;;;15.47;100.00;98831.50;4997709;28;20380;-78
2021/07/12 00:48:26;;;;;;;;;;;;;;;15.46;100.00;98829.97;4998056;28;19933;-78
2021/07/12 00:50:54;;;;;;;;;;;;;;;15.48;100.00;98840.75;5015176;28;19933;-78
2021/07/12 00:53:21;;;;;;;;;;;;;;;15.50;100.00;98838.25;4997824;28;19930;-78
2021/07/12 00:55:52;;;;;;;;;;;;;;;15.53;100.00;98846.56;5015277;28;19932;-78
2021/07/12 00:58:21;;;;;;;;;;;;;;;15.53;100.00;98842.94;4997707;28;19960;-78
2021/07/12 01:00:50;;;;;;;;;;;;;;;15.53;100.00;98846.56;4997626;28;19929;-78
2021/07/12 01:03:18;;;;;;;;;;;;;;;15.52;100.00;98853.44;5015031;28;19983;-78
2021/07/12 01:05:48;;;;;;;;;;;;;;;15.52;100.00;98856.25;4981530;28;20032;-78
2021/07/12 01:08:17;;;;;;;;;;;;;;;15.35;100.00;98856.91;5014702;28;19929;-78
2021/07/12 01:11:09;;;;;;;;;;;;;;;15.03;100.00;98852.47;5014351;28;20396;-78
2021/07/12 01:13:48;;;;;;;;;;;;;;;14.94;100.00;98854.44;4985515;28;19925;-78
2021/07/12 01:16:31;;;;;;;;;;;;;;;14.87;100.00;98858.31;4997346;28;19926;-78
2021/07/12 01:19:10;;;;;;;;;;;;;;;14.92;100.00;98863.34;4980794;28;20281;-78
2021/07/12 01:21:52;;;;;;;;;;;;;;;14.99;100.00;98877.16;5014761;28;20449;-78
2021/07/12 01:24:37;;;;;;;;;;;;;;;15.15;100.00;98879.75;5001884;28;19925;-78
2021/07/12 01:27:17;;;;;;;;;;;;;;;15.21;100.00;98879.94;5014577;28;19925;-77
2021/07/12 01:29:50;;;;;;;;;;;;;;;15.25;100.00;98894.69;4997208;28;19925;-78
2021/07/12 01:32:29;;;;;;;;;;;;;;;15.29;100.00;98893.31;5014905;28;19925;-78
2021/07/12 01:35:04;;;;;;;;;;;;;;;15.32;100.00;98892.41;4997075;28;19925;-77
2021/07/12 01:37:36;;;;;;;;;;;;;;;15.31;100.00;98899.25;5014241;28;19939;-78
2021/07/12 01:40:06;;;;;;;;;;;;;;;15.32;100.00;98903.66;4997009;28;19925;-78
2021/07/12 01:42:40;;;;;;;;;;;;;;;15.31;100.00;98904.88;4996918;28;19926;-78
2021/07/12 01:45:10;;;;;;;;;;;;;;;15.28;100.00;98908.63;4996834;28;19925;-78
2021/07/12 01:47:45;;;;;;;;;;;;;;;15.30;100.00;98911.75;5013956;28;19933;-78
2021/07/12 01:50:23;;;;;;;;;;;;;;;15.30;100.00;98906.13;4996880;28;20365;-78
2021/07/12 01:53:01;;;;;;;;;;;;;;;15.34;100.00;98903.97;4996726;28;20326;-78
2021/07/12 01:55:36;;;;;;;;;;;;;;;15.39;100.00;98911.84;4996743;28;19925;-78
2021/07/12 01:58:10;;;;;;;;;;;;;;;15.36;100.00;98898.66;4996491;28;19926;-78
2021/07/12 02:00:40;;;;;;;;;;;;;;;15.27;100.00;98895.00;4996537;28;19929;-78
2021/07/12 02:03:10;;;;;;;;;;;;;;;15.16;100.00;98877.75;5013620;28;19936;-78
2021/07/12 02:05:38;;;;;;;;;;;;;;;15.18;100.00;98881.66;4996304;28;20451;-78
2021/07/12 02:08:11;;;;;;;;;;;;;;;15.19;100.00;98882.47;5013684;28;19931;-78
2021/07/12 02:10:43;;;;;;;;;;;;;;;15.03;100.00;98891.88;4996342;28;20328;-77
2021/07/12 02:13:13;;;;;;;;;;;;;;;15.02;100.00;98890.31;4996225;28;19934;-78
2021/07/12 02:15:55;;;;;;;;;;;;;;;15.05;100.00;98903.47;4996230;28;19968;-78
2021/07/12 02:18:32;;;;;;;;;;;;;;;15.11;100.00;98901.63;4996324;28;20397;-78
2021/07/12 02:21:22;;;;;;;;;;;;;;;15.16;100.00;98914.34;4995455;28;19933;-78
2021/07/12 02:23:54;;;;;;;;;;;;;;;15.20;100.00;98912.97;4995637;28;19934;-77
2021/07/12 02:26:23;;;;;;;;;;;;;;;15.20;100.00;98912.97;4996151;28;20384;-78
2021/07/12 02:28:51;;;;;;;;;;;;;;;15.23;100.00;98917.66;5013349;28;19932;-78
2021/07/12 02:31:19;;;;;;;;;;;;;;;15.27;100.00;98912.69;4995921;28;19925;-78
2021/07/12 02:33:49;;;;;;;;;;;;;;;15.26;100.00;98896.25;4995896;28;19929;-77
2021/07/12 02:36:18;;;;;;;;;;;;;;;15.20;100.00;98895.28;4995882;28;19929;-78
2021/07/12 02:38:50;;;;;;;;;;;;;;;14.94;100.00;98897.44;4996062;28;19929;-78
2021/07/12 02:41:18;;;;;;;;;;;;;;;14.93;100.00;98901.50;4996199;28;20292;-78
2021/07/12 02:43:47;;;;;;;;;;;;;;;14.91;100.00;98911.63;5013263;28;19926;-78
2021/07/12 02:46:19;;;;;;;;;;;;;;;15.02;100.00;98912.81;4995563;28;19929;-78
2021/07/12 02:48:47;;;;;;;;;;;;;;;15.05;100.00;98911.91;4995623;28;19929;-78
2021/07/12 02:51:15;;;;;;;;;;;;;;;14.92;100.00;98918.81;4995602;28;19936;-78
2021/07/12 02:53:48;;;;;;;;;;;;;;;14.85;100.00;98914.22;5013174;28;19979;-78
2021/07/12 02:56:16;;;;;;;;;;;;;;;14.72;100.00;98918.31;4995632;28;19933;-78
2021/07/12 02:58:43;;;;;;;;;;;;;;;14.93;100.00;98918.38;4995585;28;19964;-78
2021/07/12 03:01:11;;;;;;;;;;;;;;;15.07;100.00;98926.28;4995326;28;19926;-78
2021/07/12 03:03:39;;;;;;;;;;;;;;;14.95;100.00;98920.72;4979135;28;19929;-78
2021/07/12 03:06:09;;;;;;;;;;;;;;;15.07;100.00;98931.91;4995595;28;19934;-77
2021/07/12 03:08:53;;;;;;;;;;;;;;;15.08;100.00;98927.88;5012858;28;19936;-78
2021/07/12 03:11:24;;;;;;;;;;;;;;;15.09;100.00;98926.63;4995468;28;20079;-78
2021/07/12 03:13:56;;;;;;;;;;;;;;;15.18;100.00;98925.91;4995340;28;19925;-78
2021/07/12 03:16:26;;;;;;;;;;;;;;;15.21;100.00;98931.41;4995319;28;19929;-78
2021/07/12 03:18:59;;;;;;;;;;;;;;;15.18;100.00;98923.88;5012698;28;19988;-77
2021/07/12 03:21:27;;;;;;;;;;;;;;;15.27;100.00;98912.69;4995448;28;19925;-78
2021/07/12 03:23:58;;;;;;;;;;;;;;;15.23;100.00;98914.84;4995197;28;20040;-77
2021/07/12 03:26:30;;;;;;;;;;;;;;;15.25;100.00;98908.75;4995343;28;19933;-78
2021/07/12 03:28:58;;;;;;;;;;;;;;;15.02;100.00;98895.94;4993171;28;19929;-78
2021/07/12 03:31:29;;;;;;;;;;;;;;;14.93;100.00;98900.69;4995297;28;20486;-78
2021/07/12 03:33:57;;;;;;;;;;;;;;;15.09;100.00;98904.09;4978720;28;19925;-78
2021/07/12 03:36:29;;;;;;;;;;;;;;;15.12;100.00;98899.59;4998842;28;19925;-78
2021/07/12 03:39:00;;;;;;;;;;;;;;;15.11;100.00;98898.03;4998986;28;20389;-78
2021/07/12 03:41:28;;;;;;;;;;;;;;;15.13;100.00;98898.38;4999241;28;20455;-78
2021/07/12 03:43:58;;;;;;;;;;;;;;;14.93;100.00;98893.06;4998964;28;19925;-78
2021/07/12 03:46:26;;;;;;;;;;;;;;;14.92;100.00;98893.50;4997368;28;19933;-78
2021/07/12 03:48:53;;;;;;;;;;;;;;;14.99;100.00;98908.09;5014603;28;19925;-78
2021/07/12 03:51:24;;;;;;;;;;;;;;;14.96;100.00;98914.66;5015987;28;20385;-78
2021/07/12 03:53:56;;;;;;;;;;;;;;;14.94;100.00;98911.50;4998915;28;19980;-77
2021/07/12 03:56:23;;;;;;;;;;;;;;;15.01;100.00;98914.03;5016467;28;19925;-78
2021/07/12 03:58:50;;;;;;;;;;;;;;;14.79;100.00;98918.06;5016189;28;19925;-78
2021/07/12 04:01:21;;;;;;;;;;;;;;;14.86;100.00;98921.41;5016161;28;19963;-78
2021/07/12 04:03:49;;;;;;;;;;;;;;;14.97;100.00;98929.47;5016073;28;20278;-78
2021/07/12 04:06:17;;;;;;;;;;;;;;;15.10;100.00;98942.25;4998893;28;20442;-78
2021/07/12 04:08:44;;;;;;;;;;;;;;;15.06;100.00;98938.00;5016209;28;20027;-78
2021/07/12 04:11:12;;;;;;;;;;;;;;;15.07;100.00;98931.91;4998924;28;20289;-78
2021/07/12 04:13:39;;;;;;;;;;;;;;;15.12;100.00;98934.16;4998065;28;19929;-78
2021/07/12 04:16:07;;;;;;;;;;;;;;;15.05;100.00;98933.63;5016009;28;19933;-78
2021/07/12 04:18:34;;;;;;;;;;;;;;;14.94;100.00;98928.38;4998412;28;19983;-78
2021/07/12 04:21:02;;;;;;;;;;;;;;;14.93;100.00;98926.81;5015870;28;19929;-78
2021/07/12 04:23:29;;;;;;;;;;;;;;;15.03;100.00;98931.25;5016298;28;19964;-78
2021/07/12 04:25:56;;;;;;;;;;;;;;;15.10;100.00;98942.25;5015700;28;20063;-78
2021/07/12 04:28:23;;;;;;;;;;;;;;;15.14;100.00;98937.31;5015579;28;19925;-78
2021/07/12 04:30:50;;;;;;;;;;;;;;;15.20;100.00;98935.47;4998233;28;20288;-78
2021/07/12 04:33:17;;;;;;;;;;;;;;;15.21;100.00;98931.41;4998170;28;20014;-78
2021/07/12 04:35:44;;;;;;;;;;;;;;;15.13;100.00;98927.25;5015466;28;20305;-78
2021/07/12 04:38:12;;;;;;;;;;;;;;;15.21;100.00;98934.22;5015746;28;20395;-78
2021/07/12 04:40:39;;;;;;;;;;;;;;;15.24;100.00;98936.13;5015659;28;20690;-78
2021/07/12 04:43:07;;;;;;;;;;;;;;;15.27;100.00;98929.56;5015331;28;19925;-78
2021/07/12 04:45:36;;;;;;;;;;;;;;;15.07;100.00;98929.09;5015012;28;20023;-78
2021/07/12 04:48:04;;;;;;;;;;;;;;;15.18;100.00;98928.72;5015279;28;19983;-78
2021/07/12 04:50:33;;;;;;;;;;;;;;;15.18;100.00;98932.31;4998096;28;20373;-78
2021/07/12 04:53:00;;;;;;;;;;;;;;;15.27;100.00;98931.59;5015216;28;20438;-78
2021/07/12 04:55:27;;;;;;;;;;;;;;;15.31;100.00;98929.44;5015022;28;19926;-78
2021/07/12 04:57:55;;;;;;;;;;;;;;;15.30;100.00;98923.03;5015038;28;19926;-78
2021/07/12 05:00:23;;;;;;;;;;;;;;;15.32;100.00;98925.38;4997566;28;20396;-78
2021/07/12 05:02:50;;;;;;;;;;;;;;;15.34;100.00;98925.72;5015186;28;19930;-78
2021/07/12 05:05:18;;;;;;;;;;;;;;;15.38;100.00;98917.94;4997729;28;19926;-78
2021/07/12 05:07:45;;;;;;;;;;;;;;;15.43;100.00;98925.81;4997606;28;20329;-78
2021/07/12 05:10:12;;;;;;;;;;;;;;;15.43;100.00;98920.97;5014809;28;20423;-77
2021/07/12 05:12:40;;;;;;;;;;;;;;;15.51;100.00;98927.88;4981349;28;20428;-78
2021/07/12 05:15:08;;;;;;;;;;;;;;;15.57;100.00;98923.22;5014447;28;20297;-78
2021/07/12 05:17:36;;;;;;;;;;;;;;;15.53;100.00;98919.78;4981218;28;19929;-77
2021/07/12 05:20:07;;;;;;;;;;;;;;;15.53;100.00;98914.13;4997353;28;20344;-78
2021/07/12 05:22:34;;;;;;;;;;;;;;;15.58;100.00;98907.13;4981474;28;20403;-78
2021/07/12 05:25:02;;;;;;;;;;;;;;;15.64;100.00;98900.44;5014469;28;20304;-78
2021/07/12 05:27:29;;;;;;;;;;;;;;;15.73;100.00;98897.66;4997106;28;20384;-78
2021/07/12 05:29:57;;;;;;;;;;;;;;;15.80;100.00;98888.94;5014536;28;19926;-78
2021/07/12 05:32:24;;;;;;;;;;;;;;;15.80;100.00;98877.66;5014517;28;20378;-78
2021/07/12 05:34:51;;;;;;;;;;;;;;;15.78;100.00;98874.50;4997258;28;19956;-78
2021/07/12 05:37:18;;;;;;;;;;;;;;;15.82;100.00;98868.75;4996959;28;20024;-78
2021/07/12 05:39:45;;;;;;;;;;;;;;;15.82;100.00;98869.53;5014159;28;19925;-78
2021/07/12 05:42:13;;;;;;;;;;;;;;;15.68;100.00;98869.31;5014273;28;19936;-78
2021/07/12 05:44:40;;;;;;;;;;;;;;;15.75;100.00;98871.84;4996706;28;19929;-78
2021/07/12 05:47:07;;;;;;;;;;;;;;;15.89;100.00;98879.72;5014320;28;19932;-78
2021/07/12 05:49:34;;;;;;;;;;;;;;;15.72;100.00;98876.38;5014045;28;19936;-78
2021/07/12 05:52:01;;;;;;;;;;;;;;;15.86;100.00;98881.44;5014144;28;19932;-78
2021/07/12 05:54:28;;;;;;;;;;;;;;;16.04;100.00;98875.88;4996378;28;20377;-78
2021/07/12 05:56:55;;;;;;;;;;;;;;;16.16;100.00;98882.66;5013971;28;20448;-78
2021/07/12 05:59:25;;;;;;;;;;;;;;;16.25;100.00;98882.69;4980447;28;19929;-78
2021/07/12 06:01:52;;;;;;;;;;;;;;;16.35;100.00;98886.28;4996530;28;19925;-78
2021/07/12 06:04:19;;;;;;;;;;;;;;;16.42;100.00;98883.19;5014014;28;19930;-78
2021/07/12 06:06:46;;;;;;;;;;;;;;;16.44;100.00;98870.22;4996292;28;19929;-78
2021/07/12 06:09:13;;;;;;;;;;;;;;;16.44;100.00;98869.41;5013679;28;19926;-78
2021/07/12 06:11:40;;;;;;;;;;;;;;;16.28;100.00;98862.03;5013474;28;19937;-78
2021/07/12 06:14:07;;;;;;;;;;;;;;;16.34;100.00;98857.34;5013706;28;19929;-78
2021/07/12 06:16:34;;;;;;;;;;;;;;;16.27;100.00;98849.94;5013845;28;19925;-78
2021/07/12 06:19:01;;;;;;;;;;;;;;;16.36;100.00;98846.34;5000186;28;19926;-78
2021/07/12 06:21:28;;;;;;;;;;;;;;;16.46;100.00;98847.19;5013708;28;20407;-78
2021/07/12 06:23:55;;;;;;;;;;;;;;;16.49;100.00;98844.22;4995823;28;20376;-78
2021/07/12 06:26:22;;;;;;;;;;;;;;;16.50;100.00;98839.34;5013588;28;20411;-78
2021/07/12 06:28:50;;;;;;;;;;;;;;;16.44;100.00;98833.56;4995705;28;20391;-78
2021/07/12 06:31:17;;;;;;;;;;;;;;;16.48;100.00;98831.34;5013571;28;19926;-78
2021/07/12 06:33:44;;;;;;;;;;;;;;;16.51;100.00;98826.84;5013213;28;19932;-78
2021/07/12 06:36:11;;;;;;;;;;;;;;;16.49;100.00;98815.22;5013427;28;19929;-78
2021/07/12 06:38:39;;;;;;;;;;;;;;;16.51;100.00;98813.50;5013442;28;20297;-78
2021/07/12 06:41:06;;;;;;;;;;;;;;;16.53;100.00;98811.00;5013244;28;19926;-78
2021/07/12 06:43:34;;;;;;;;;;;;;;;16.55;100.00;98802.88;4996065;28;19932;-78
2021/07/12 06:46:02;;;;;;;;;;;;;;;16.51;100.00;98801.44;5013117;28;20293;-78
2021/07/12 06:48:29;;;;;;;;;;;;;;;16.64;100.00;98811.31;4995670;28;20208;-78
2021/07/12 06:51:08;;;;;;;;;;;;;;;16.65;100.00;98812.88;4995577;28;20414;-78
2021/07/12 06:53:36;;;;;;;;;;;;;;;16.68;100.00;98808.31;5012824;28;20381;-78
2021/07/12 06:56:04;;;;;;;;;;;;;;;16.61;100.00;98806.63;4995438;28;19932;-78
2021/07/12 06:58:31;;;;;;;;;;;;;;;16.62;100.00;98798.94;5012885;28;20032;-78
2021/07/12 07:00:58;;;;;;;;;;;;;;;16.80;100.00;98801.72;5013085;28;20016;-78
2021/07/12 07:03:25;;;;;;;;;;;;;;;16.90;100.00;98809.75;5012854;28;19926;-78
2021/07/12 07:05:52;;;;;;;;;;;;;;;16.99;100.00;98803.28;5012781;28;19980;-78
2021/07/12 07:08:37;;;;;;;;;;;;;;;17.03;100.00;98798.25;5012855;28;20016;-78
2021/07/12 07:11:08;;;;;;;;;;;;;;;16.91;100.00;98787.94;5012837;28;19926;-78
2021/07/12 07:13:35;;;;;;;;;;;;;;;16.74;100.00;98787.50;5012461;28;19925;-78
2021/07/12 07:16:03;;;;;;;;;;;;;;;17.01;100.00;98772.56;4995813;28;20377;-78
2021/07/12 07:18:31;;;;;;;;;;;;;;;17.15;100.00;98774.72;4995151;28;20355;-78
2021/07/12 07:20:59;;;;;;;;;;;;;;;17.18;100.00;98776.59;4995188;28;19926;-78
2021/07/12 07:23:26;;;;;;;;;;;;;;;17.15;100.00;98763.41;5012646;28;19932;-78
2021/07/12 07:25:53;;;;;;;;;;;;;;;17.25;100.00;98760.09;5012533;28;19936;-78
2021/07/12 07:28:20;;;;;;;;;;;;;;;17.37;100.00;98756.28;5012588;28;20068;-78
2021/07/12 07:30:48;;;;;;;;;;;;;;;17.37;100.00;98744.22;4995254;28;19926;-78
2021/07/12 07:33:15;;;;;;;;;;;;;;;17.49;100.00;98737.63;5012624;28;19926;-78
2021/07/12 07:35:42;;;;;;;;;;;;;;;17.57;100.00;98731.13;4978804;28;20028;-78
2021/07/12 07:38:09;;;;;;;;;;;;;;;17.62;100.00;98726.88;5013136;28;19932;-78
2021/07/12 07:40:37;;;;;;;;;;;;;;;17.61;100.00;98720.44;5012184;28;19926;-78
2021/07/12 07:43:04;;;;;;;;;;;;;;;17.53;100.00;98713.59;5012588;28;19932;-78
2021/07/12 07:45:32;;;;;;;;;;;;;;;17.72;100.00;98714.28;4994958;28;20021;-78
2021/07/12 07:47:59;;;;;;;;;;;;;;;17.74;100.00;98706.06;4995053;28;20021;-78
2021/07/12 07:50:26;;;;;;;;;;;;;;;17.72;100.00;98692.44;5012328;28;20012;-78
2021/07/12 07:52:54;;;;;;;;;;;;;;;17.67;100.00;98690.28;5012215;28;19925;-78
2021/07/12 07:55:21;;;;;;;;;;;;;;;17.67;100.00;98686.66;4994667;28;19939;-78
2021/07/12 07:57:48;;;;;;;;;;;;;;;17.68;100.00;98685.41;5012607;28;19941;-78
2021/07/12 08:00:17;;;;;;;;;;;;;;;17.70;100.00;98677.22;5012347;28;19937;-78
2021/07/12 08:02:44;;;;;;;;;;;;;;;17.73;100.00;98681.91;4994909;28;19936;-78
2021/07/12 08:05:12;;;;;;;;;;;;;;;17.69;100.00;98676.44;4978341;28;19991;-78
2021/07/12 08:07:39;;;;;;;;;;;;;;;17.66;100.00;98676.63;4978682;28;19932;-78
2021/07/12 08:10:08;;;;;;;;;;;;;;;17.67;100.00;98687.47;5012151;28;19932;-78
2021/07/12 08:12:36;;;;;;;;;;;;;;;17.66;100.00;98682.28;4994865;28;20373;-78
2021/07/12 08:15:04;;;;;;;;;;;;;;;17.53;100.00;98679.69;5011654;28;19932;-78
2021/07/12 08:17:31;;;;;;;;;;;;;;;17.50;100.00;98686.28;4994648;28;20002;-78
2021/07/12 08:19:58;;;;;;;;;;;;;;;17.45;100.00;98678.47;4994599;28;20307;-78
2021/07/12 08:22:33;;;;;;;;;;;;;;;17.57;100.00;98673.84;5002685;28;20004;-78
2021/07/12 08:25:02;;;;;;;;;;;;;;;17.47;100.00;98686.47;4998405;28;20353;-78
2021/07/12 08:27:31;;;;;;;;;;;;;;;17.50;100.00;98677.81;4998217;28;19964;-78
2021/07/12 08:29:58;;;;;;;;;;;;;;;17.63;100.00;98686.06;5015861;28;20071;-78
2021/07/12 08:32:27;;;;;;;;;;;;;;;17.66;100.00;98694.34;5015675;28;19961;-78
2021/07/12 08:34:54;;;;;;;;;;;;;;;17.68;100.00;98699.53;5015281;28;19932;-78
2021/07/12 08:37:21;;;;;;;;;;;;;;;17.67;100.00;98687.47;4998058;28;19933;-78
2021/07/12 08:39:48;;;;;;;;;;;;;;;17.72;100.00;98680.38;4998129;28;20381;-78
2021/07/12 08:42:16;;;;;;;;;;;;;;;17.86;100.00;98679.63;5015559;28;19925;-78
2021/07/12 08:44:43;;;;;;;;;;;;;;;17.88;100.00;98671.44;4998014;28;19925;-78
2021/07/12 08:47:10;;;;;;;;;;;;;;;17.55;100.00;98670.72;5015306;28;19932;-78
2021/07/12 08:49:37;;;;;;;;;;;;;;;17.81;100.00;98660.53;5015006;28;19933;-78
2021/07/12 08:52:04;;;;;;;;;;;;;;;17.99;100.00;98666.03;5015321;28;20019;-78
2021/07/12 08:54:32;;;;;;;;;;;;;;;17.71;100.00;98662.63;5015052;28;19929;-78
2021/07/12 08:56:59;;;;;;;;;;;;;;;17.64;100.00;98656.56;4998050;28;20412;-78
2021/07/12 08:59:27;;;;;;;;;;;;;;;17.86;100.00;98657.00;5015263;28;19926;-77
2021/07/12 09:02:14;;;;;;;;;;;;;;;17.74;100.00;98658.03;5014809;28;19930;-78
2021/07/12 09:04:42;;;;;;;;;;;;;;;18.06;100.00;98660.00;5015194;28;19929;-78
2021/07/12 09:07:11;;;;;;;;;;;;;;;18.14;100.00;98661.19;4997787;28;20016;-78
2021/07/12 09:09:38;;;;;;;;;;;;;;;18.28;100.00;98657.59;5015064;28;20023;-78
2021/07/12 09:12:13;;;;;;;;;;;;;;;18.39;100.00;98660.69;4997389;28;20444;-78
2021/07/12 09:14:40;;;;;;;;;;;;;;;18.59;100.00;98662.84;5014852;28;20036;-78
2021/07/12 09:17:08;;;;;;;;;;;;;;;18.45;100.00;98655.91;5014583;28;19949;-78
2021/07/12 09:19:36;;;;;;;;;;;;;;;18.52;100.00;98651.91;4997541;28;19984;-78
2021/07/12 09:22:05;;;;;;;;;;;;;;;18.73;100.00;98639.44;5014570;28;19925;-78
2021/07/12 09:24:34;;;;;;;;;;;;;;;18.85;100.00;98632.69;4981194;28;20296;-78
2021/07/12 09:27:04;;;;;;;;;;;;;;;18.92;100.00;98627.41;5014457;28;19934;-78
2021/07/12 09:29:40;;;;;;;;;;;;;;;18.52;100.00;98630.09;5014828;28;20381;-78
2021/07/12 09:32:09;;;;;;;;;;;;;;;18.83;100.00;98621.84;4996529;28;19936;-78
2021/07/12 09:34:37;;;;;;;;;;;;;;;18.57;100.00;98632.22;4996769;28;19926;-78
2021/07/12 09:37:05;;;;;;;;;;;;;;;18.15;100.00;98614.69;5014567;28;20451;-78
2021/07/12 09:39:33;;;;;;;;;;;;;;;17.77;100.00;98618.31;4981203;28;19929;-78
2021/07/12 09:42:02;;;;;;;;;;;;;;;17.81;100.00;98626.63;4997064;28;19980;-78
2021/07/12 09:44:29;;;;;;;;;;;;;;;18.11;100.00;98630.28;5014248;28;19936;-78
2021/07/12 09:46:57;;;;;;;;;;;;;;;17.57;100.00;98634.28;5014280;28;19932;-78
2021/07/12 09:49:25;;;;;;;;;;;;;;;16.96;100.00;98630.06;5014121;28;19925;-78
2021/07/12 09:51:54;;;;;;;;;;;;;;;17.15;100.00;98639.22;5014256;28;19925;-78
2021/07/12 09:54:23;;;;;;;;;;;;;;;16.70;100.00;98642.22;5014181;28;19932;-78
2021/07/12 09:56:53;;;;;;;;;;;;;;;17.13;100.00;98661.50;5014151;28;19925;-78
2021/07/12 09:59:22;;;;;;;;;;;;;;;17.13;100.00;98655.88;5013382;28;20201;-78
2021/07/12 10:01:51;;;;;;;;;;;;;;;17.09;100.00;98663.69;5013865;28;20444;-78
2021/07/12 10:04:18;;;;;;;;;;;;;;;16.85;100.00;98663.66;5013922;28;19926;-78
2021/07/12 10:06:46;;;;;;;;;;;;;;;16.90;100.00;98660.19;5013845;28;19936;-78
2021/07/12 10:09:14;;;;;;;;;;;;;;;16.80;100.00;98672.75;5014149;28;19932;-78
2021/07/12 10:11:44;;;;;;;;;;;;;;;17.17;100.00;98670.56;5013701;28;19991;-78
2021/07/12 10:14:12;;;;;;;;;;;;;;;17.36;100.00;98667.19;4996466;28;19933;-78
2021/07/12 10:16:39;;;;;;;;;;;;;;;16.72;100.00;98671.50;5013661;28;19926;-78
2021/07/12 10:19:06;;;;;;;;;;;;;;;16.77;100.00;98662.41;5013645;28;19973;-78
2021/07/12 10:21:38;;;;;;;;;;;;;;;16.78;100.00;98663.97;5013722;28;19925;-78
2021/07/12 10:24:06;;;;;;;;;;;;;;;17.09;100.00;98666.53;4996044;28;19926;-78
2021/07/12 10:27:03;;;;;;;;;;;;;;;17.27;100.00;98666.44;5013665;28;19932;-78
2021/07/12 10:29:32;;;;;;;;;;;;;;;17.03;100.00;98674.06;5000990;28;19925;-78
2021/07/12 10:31:59;;;;;;;;;;;;;;;17.35;100.00;98681.78;5013312;28;19932;-78
2021/07/12 10:34:31;;;;;;;;;;;;;;;17.43;100.00;98677.38;5013429;28;19932;-78
2021/07/12 10:37:15;;;;;;;;;;;;;;;17.36;100.00;98674.88;5013812;28;20032;-78
2021/07/12 10:40:12;;;;;;;;;;;;;;;17.57;100.00;98685.94;5013515;28;20016;-78
2021/07/12 10:42:42;;;;;;;;;;;;;;;17.71;100.00;98676.75;4990557;28;19926;-77
2021/07/12 10:45:09;;;;;;;;;;;;;;;17.70;100.00;98678.03;5013045;28;20076;-78
2021/07/12 10:47:46;;;;;;;;;;;;;;;17.65;100.00;98673.03;4995545;28;20023;-78
2021/07/12 10:50:32;;;;;;;;;;;;;;;17.68;100.00;98668.44;5013293;28;19929;-78
2021/07/12 10:53:03;;;;;;;;;;;;;;;17.52;100.00;98661.16;5013076;28;20040;-78
2021/07/12 10:55:31;;;;;;;;;;;;;;;17.74;100.00;98675.00;5013143;28;19926;-78
2021/07/12 10:58:17;;;;;;;;;;;;;;;17.81;100.00;98666.94;5012864;28;20403;-78
2021/07/12 11:00:49;;;;;;;;;;;;;;;17.87;100.00;98670.66;5013002;28;20289;-78
2021/07/12 11:03:35;;;;;;;;;;;;;;;17.88;100.00;98668.63;4995431;28;19947;-78
2021/07/12 11:06:02;;;;;;;;;;;;;;;17.87;100.00;98669.91;5013156;28;19932;-78
2021/07/12 11:08:49;;;;;;;;;;;;;;;17.94;100.00;98675.16;5013036;28;20392;-78
2021/07/12 11:11:19;;;;;;;;;;;;;;;17.99;100.00;98671.69;5013059;28;20019;-78
2021/07/12 11:13:53;;;;;;;;;;;;;;;17.95;100.00;98671.06;4994752;28;19932;-78
2021/07/12 11:16:21;;;;;;;;;;;;;;;18.03;100.00;98672.28;5013126;28;20008;-78
2021/07/12 11:18:49;;;;;;;;;;;;;;;18.07;100.00;98672.09;5012766;28;20297;-78
2021/07/12 11:21:29;;;;;;;;;;;;;;;18.13;100.00;98668.09;4995404;28;19932;-78
2021/07/12 11:23:57;;;;;;;;;;;;;;;18.20;100.00;98664.91;4995231;28;19932;-78
2021/07/12 11:26:27;;;;;;;;;;;;;;;18.29;100.00;98662.00;4979355;28;19925;-78
2021/07/12 11:28:55;;;;;;;;;;;;;;;18.31;100.00;98665.13;5012291;28;19925;-78
2021/07/12 11:31:41;;;;;;;;;;;;;;;18.39;100.00;98663.50;5012674;28;20019;-78
2021/07/12 11:34:13;;;;;;;;;;;;;;;18.46;100.00;98665.19;4995239;28;20336;-78
2021/07/12 11:36:57;;;;;;;;;;;;;;;18.61;100.00;98657.50;5012787;28;19932;-78
2021/07/12 11:39:40;;;;;;;;;;;;;;;18.69;100.00;98655.84;5000921;28;19926;-78
2021/07/12 11:42:31;;;;;;;;;;;;;;;18.45;100.00;98661.56;5012336;28;20012;-78
2021/07/12 11:45:01;;;;;;;;;;;;;;;18.39;100.00;98657.09;5005156;28;20381;-78
2021/07/12 11:47:35;;;;;;;;;;;;;;;18.45;100.00;98658.72;5012462;28;20345;-78
2021/07/12 11:50:09;;;;;;;;;;;;;;;18.38;100.00;98656.28;5012573;28;19929;-78
2021/07/12 11:52:38;;;;;;;;;;;;;;;18.37;100.00;98651.91;4978656;28;20343;-78
2021/07/12 11:55:07;;;;;;;;;;;;;;;18.40;100.00;98653.78;5012432;28;20112;-78
2021/07/12 11:57:37;;;;;;;;;;;;;;;18.38;100.00;98653.47;5015912;28;19983;-78
2021/07/12 12:00:09;;;;;;;;;;;;;;;18.16;100.00;98653.00;4982796;28;20377;-78
2021/07/12 12:02:36;;;;;;;;;;;;;;;18.06;100.00;98662.81;5016408;28;19948;-78
2021/07/12 12:05:05;;;;;;;;;;;;;;;18.02;100.00;98659.41;4998576;28;19925;-78
2021/07/12 12:07:38;;;;;;;;;;;;;;;17.72;100.00;98663.41;5016269;28;19926;-78
2021/07/12 12:10:08;;;;;;;;;;;;;;;17.47;100.00;98663.88;5016071;28;20035;-78
2021/07/12 12:12:39;;;;;;;;;;;;;;;17.63;100.00;98671.94;4982368;28;19935;-78
2021/07/12 12:15:09;;;;;;;;;;;;;;;17.32;100.00;98660.16;5015838;28;20022;-78
2021/07/12 12:17:41;;;;;;;;;;;;;;;17.53;100.00;98668.38;5016161;28;19993;-78
2021/07/12 12:20:09;;;;;;;;;;;;;;;17.78;100.00;98678.44;5015832;28;19930;-78
2021/07/12 12:22:38;;;;;;;;;;;;;;;17.66;100.00;98673.81;4998764;28;19968;-78
2021/07/12 12:25:05;;;;;;;;;;;;;;;17.73;100.00;98676.25;5015820;28;20391;-78
2021/07/12 12:27:36;;;;;;;;;;;;;;;17.94;100.00;98686.47;4998491;28;19929;-78
2021/07/12 12:30:06;;;;;;;;;;;;;;;18.02;100.00;98677.13;5015699;28;19956;-78
2021/07/12 12:32:34;;;;;;;;;;;;;;;17.89;100.00;98675.84;5015659;28;20300;-78
2021/07/12 12:35:02;;;;;;;;;;;;;;;18.20;100.00;98687.53;5015779;28;19980;-78
2021/07/12 12:37:36;;;;;;;;;;;;;;;18.20;100.00;98681.88;5015575;28;19925;-79
2021/07/12 12:40:15;;;;;;;;;;;;;;;18.10;100.00;98686.03;4998269;28;20003;-78
2021/07/12 12:42:43;;;;;;;;;;;;;;;17.95;100.00;98679.56;5015442;28;19929;-79
2021/07/12 12:45:10;;;;;;;;;;;;;;;18.40;100.00;98678.44;4997942;28;19925;-79
2021/07/12 12:47:43;;;;;;;;;;;;;;;18.03;100.00;98680.75;5015400;28;20334;-78
2021/07/12 12:50:11;;;;;;;;;;;;;;;18.40;100.00;98684.88;4998107;28;19925;-78